createdAt,value
2022-12-18T00:03:27.231Z,84.87
2022-12-18T00:08:29.754Z,85.12
2022-12-18T00:13:32.256Z,85.15
2022-12-18T00:18:34.617Z,84.90
2022-12-18T00:23:38.257Z,84.62
2022-12-18T00:28:41.118Z,84.68
2022-12-18T00:33:43.730Z,84.53
2022-12-18T00:38:46.609Z,84.36
2022-12-18T00:43:48.850Z,84.86
2022-12-18T00:48:51.152Z,84.64
2022-12-18T00:53:53.793Z,84.55
2022-12-18T00:58:56.137Z,84.69
2022-12-18T01:03:58.980Z,84.54
2022-12-18T01:09:01.545Z,84.46
2022-12-18T01:14:03.933Z,84.78
2022-12-18T01:19:06.222Z,85.06
2022-12-18T01:24:08.943Z,84.97
2022-12-18T01:29:11.145Z,84.97
2022-12-18T01:34:13.359Z,85.11
2022-12-18T01:39:16.420Z,85.06
2022-12-18T01:44:56.693Z,84.82
2022-12-18T01:50:01.488Z,84.70
2022-12-18T01:55:06.407Z,84.59
2022-12-18T02:00:15.738Z,84.57
2022-12-18T02:05:36.218Z,85.27
2022-12-18T02:11:08.147Z,85.01
2022-12-18T02:16:29.337Z,85.46
2022-12-18T02:21:51.459Z,85.03
2022-12-18T02:27:03.121Z,85.49
2022-12-18T02:32:10.828Z,85.80
2022-12-18T02:37:16.420Z,85.29
2022-12-18T02:42:20.183Z,85.03
2022-12-18T02:47:25.656Z,85.24
2022-12-18T02:52:30.356Z,85.82
2022-12-18T02:57:46.207Z,85.57
2022-12-18T03:02:57.351Z,85.09
2022-12-18T03:08:05.505Z,85.33
2022-12-18T03:13:13.585Z,85.00
2022-12-18T03:18:26.875Z,85.27
2022-12-18T03:23:33.944Z,85.29
2022-12-18T03:28:41.315Z,84.59
2022-12-18T03:33:54.965Z,85.12
2022-12-18T03:38:59.384Z,85.23
2022-12-18T03:44:10.355Z,84.98
2022-12-18T03:49:31.300Z,84.66
2022-12-18T03:54:34.561Z,84.65
2022-12-18T03:59:39.125Z,84.70
2022-12-18T04:04:43.850Z,85.01
2022-12-18T04:09:47.755Z,85.10
2022-12-18T04:14:50.072Z,84.87
2022-12-18T04:19:52.357Z,85.46
2022-12-18T04:24:54.562Z,85.25
2022-12-18T04:29:56.829Z,85.16
2022-12-18T04:34:59.244Z,85.07
2022-12-18T04:40:01.426Z,84.78
2022-12-18T04:45:03.960Z,84.69
2022-12-18T04:50:06.785Z,84.52
2022-12-18T04:55:09.443Z,84.37
2022-12-18T05:00:12.310Z,84.67
2022-12-18T05:05:14.546Z,84.58
2022-12-18T05:10:16.995Z,84.47
2022-12-18T05:15:19.300Z,84.84
2022-12-18T05:20:21.602Z,84.58
2022-12-18T05:25:25.098Z,84.52
2022-12-18T05:30:27.405Z,84.83
2022-12-18T05:35:29.672Z,84.94
2022-12-18T05:40:32.074Z,84.74
2022-12-18T05:45:39.601Z,85.16
2022-12-18T05:50:43.947Z,84.77
2022-12-18T05:55:49.182Z,84.68
2022-12-18T06:00:51.374Z,85.12
2022-12-18T06:05:53.637Z,84.92
2022-12-18T06:10:55.999Z,84.86
2022-12-18T06:15:58.324Z,84.86
2022-12-18T06:21:01.768Z,85.38
2022-12-18T06:26:10.132Z,85.10
2022-12-18T06:31:13.440Z,84.98
2022-12-18T06:36:15.812Z,85.02
2022-12-18T06:41:21.253Z,85.15
2022-12-18T06:51:44.192Z,85.17
2022-12-18T06:56:49.369Z,85.01
2022-12-18T07:01:51.918Z,85.31
2022-12-18T07:06:54.234Z,85.32
2022-12-18T07:11:56.705Z,86.05
2022-12-18T07:17:00.260Z,85.67
2022-12-18T07:22:02.686Z,85.55
2022-12-18T07:27:05.263Z,85.57
2022-12-18T07:32:10.273Z,85.66
2022-12-18T07:37:12.822Z,85.77
2022-12-18T07:42:33.336Z,85.50
2022-12-18T07:47:39.382Z,85.92
2022-12-18T07:52:41.599Z,85.25
2022-12-18T07:57:53.414Z,85.88
2022-12-18T08:02:59.206Z,85.76
2022-12-18T08:08:01.548Z,85.53
2022-12-18T08:13:05.259Z,85.78
2022-12-18T08:18:12.686Z,85.45
2022-12-18T08:23:16.222Z,85.59
2022-12-18T08:28:18.800Z,85.63
2022-12-18T08:33:21.136Z,85.48
2022-12-18T08:38:24.351Z,85.48
2022-12-18T08:43:44.960Z,85.50
2022-12-18T08:48:48.031Z,85.48
2022-12-18T08:53:50.280Z,85.68
2022-12-18T08:58:56.396Z,85.64
2022-12-18T09:03:58.832Z,85.65
2022-12-18T09:09:01.303Z,85.43
2022-12-18T09:14:04.151Z,85.53
2022-12-18T09:19:08.164Z,85.07
2022-12-18T09:24:15.001Z,85.08
2022-12-18T09:29:18.841Z,85.13
2022-12-18T09:34:23.325Z,85.61
2022-12-18T09:39:25.690Z,85.20
2022-12-18T09:44:32.942Z,85.26
2022-12-18T09:49:42.989Z,85.51
2022-12-18T09:55:09.034Z,85.23
2022-12-18T10:00:26.440Z,84.97
2022-12-18T10:05:53.877Z,84.81
2022-12-18T10:11:05.054Z,84.69
2022-12-18T10:16:19.224Z,84.77
2022-12-18T10:21:32.000Z,84.29
2022-12-18T10:26:34.993Z,84.17
2022-12-18T10:31:37.737Z,84.09
2022-12-18T10:36:40.714Z,83.76
2022-12-18T10:41:43.067Z,83.82
2022-12-18T10:46:50.874Z,83.18
2022-12-18T10:52:05.937Z,83.70
2022-12-18T10:57:18.288Z,83.63
2022-12-18T11:02:39.359Z,83.24
2022-12-18T11:07:51.752Z,82.94
2022-12-18T11:12:54.203Z,82.25
2022-12-18T11:17:56.688Z,82.09
2022-12-18T11:23:05.419Z,81.92
2022-12-18T11:28:42.783Z,82.13
2022-12-18T11:34:27.355Z,81.92
2022-12-18T11:39:42.201Z,81.59
2022-12-18T11:45:12.703Z,81.86
2022-12-18T11:50:32.086Z,81.44
2022-12-18T11:56:04.974Z,81.70
2022-12-18T12:01:30.159Z,81.30
2022-12-18T12:06:44.266Z,81.50
2022-12-18T12:11:52.447Z,81.02
2022-12-18T12:17:12.839Z,81.03
2022-12-18T12:22:20.973Z,81.00
2022-12-18T12:28:07.487Z,81.27
2022-12-18T12:38:52.515Z,80.50
2022-12-18T12:44:00.323Z,80.89
2022-12-18T12:49:12.969Z,80.70
2022-12-18T12:54:23.500Z,80.35
2022-12-18T12:59:36.552Z,80.67
2022-12-18T13:04:54.810Z,80.60
2022-12-18T13:10:21.233Z,80.61
2022-12-18T13:15:36.812Z,80.59
2022-12-18T13:20:52.289Z,80.21
2022-12-18T13:26:11.800Z,80.18
2022-12-18T13:31:42.224Z,79.98
2022-12-18T13:36:45.281Z,80.06
2022-12-18T13:42:35.979Z,80.20
2022-12-18T13:47:39.690Z,80.18
2022-12-18T13:52:41.940Z,80.28
2022-12-18T13:57:44.221Z,79.99
2022-12-18T14:02:48.015Z,80.03
2022-12-18T14:13:12.974Z,80.44
2022-12-18T14:18:29.943Z,80.18
2022-12-18T14:23:36.450Z,80.27
2022-12-18T14:28:46.168Z,79.98
2022-12-18T14:33:48.844Z,79.83
2022-12-18T14:38:53.360Z,80.13
2022-12-18T14:43:56.998Z,80.05
2022-12-18T14:49:00.122Z,80.07
2022-12-18T14:54:09.629Z,80.46
2022-12-18T14:59:24.004Z,80.33
2022-12-18T15:04:32.312Z,80.37
2022-12-18T15:09:34.958Z,80.34
2022-12-18T15:14:37.584Z,80.65
2022-12-18T15:19:43.009Z,80.72
2022-12-18T15:24:45.457Z,81.42
2022-12-18T15:30:21.507Z,80.57
2022-12-18T15:35:26.048Z,80.76
2022-12-18T15:40:28.587Z,80.97
2022-12-18T15:45:31.163Z,80.79
2022-12-18T15:50:33.597Z,81.41
2022-12-18T15:56:00.724Z,81.57
2022-12-18T16:01:03.800Z,81.45
2022-12-18T16:06:06.613Z,82.49
2022-12-18T16:11:39.272Z,82.53
2022-12-18T16:16:41.580Z,81.89
2022-12-18T16:21:46.934Z,82.24
2022-12-18T16:26:50.394Z,82.21
2022-12-18T16:31:53.530Z,81.98
2022-12-18T16:37:01.674Z,83.33
2022-12-18T16:42:27.572Z,83.41
2022-12-18T16:52:52.585Z,84.05
2022-12-18T17:03:14.617Z,83.88
2022-12-18T17:08:16.963Z,83.79
2022-12-18T17:13:25.446Z,83.74
2022-12-18T17:18:28.690Z,83.52
2022-12-18T17:23:31.091Z,84.08
2022-12-18T17:28:34.381Z,83.63
2022-12-18T17:33:36.789Z,83.59
2022-12-18T17:38:39.148Z,84.07
2022-12-18T17:43:46.248Z,83.54
2022-12-18T17:48:49.120Z,83.21
2022-12-18T17:53:52.057Z,83.33
2022-12-18T17:58:54.640Z,83.04
2022-12-18T18:03:57.272Z,83.54
2022-12-18T18:08:59.613Z,83.41
2022-12-18T18:14:03.103Z,82.91
2022-12-18T18:19:08.689Z,82.92
2022-12-18T18:24:13.223Z,82.82
2022-12-18T18:29:18.489Z,82.68
2022-12-18T18:34:29.265Z,82.74
2022-12-18T18:39:31.647Z,82.73
2022-12-18T18:44:33.924Z,82.84
2022-12-18T18:55:12.934Z,82.75
2022-12-18T19:00:16.854Z,82.71
2022-12-18T19:05:19.341Z,82.81
2022-12-18T19:10:21.614Z,82.97
2022-12-18T19:15:24.402Z,82.68
2022-12-18T19:20:28.219Z,82.75
2022-12-18T19:25:40.303Z,82.78
2022-12-18T19:36:16.571Z,82.78
2022-12-18T19:41:20.569Z,82.16
2022-12-18T19:46:24.105Z,81.96
2022-12-18T19:51:28.632Z,82.19
2022-12-18T19:56:33.706Z,82.01
2022-12-18T20:01:38.494Z,81.89
2022-12-18T20:06:52.495Z,81.90
2022-12-18T20:11:55.023Z,82.04
2022-12-18T20:16:58.246Z,81.90
2022-12-18T20:22:02.761Z,81.79
2022-12-18T20:27:06.901Z,81.86
2022-12-18T20:32:12.173Z,81.80
2022-12-18T20:37:17.328Z,82.13
2022-12-18T20:42:21.571Z,81.74
2022-12-18T20:47:23.907Z,81.29
2022-12-18T20:52:26.344Z,81.46
2022-12-18T20:57:28.768Z,81.35
2022-12-18T21:02:31.202Z,81.59
2022-12-18T21:07:33.706Z,81.52
2022-12-18T21:12:40.354Z,80.96
2022-12-18T21:17:46.963Z,80.91
2022-12-18T21:22:49.876Z,80.76
2022-12-18T21:27:52.213Z,80.75
2022-12-18T21:32:54.565Z,80.54
2022-12-18T21:37:56.902Z,80.31
2022-12-18T21:43:17.973Z,79.84
2022-12-18T21:48:20.192Z,79.01
2022-12-18T21:53:22.441Z,76.26
2022-12-18T21:58:24.856Z,71.88
2022-12-18T22:03:27.301Z,71.79
2022-12-18T22:08:29.712Z,69.57
2022-12-18T22:13:32.002Z,67.18
2022-12-18T22:18:34.307Z,66.27
2022-12-18T22:23:36.642Z,65.30
2022-12-18T22:28:57.984Z,65.19
2022-12-18T22:34:00.726Z,63.86
2022-12-18T22:39:03.375Z,64.07
2022-12-18T22:44:05.732Z,62.77
2022-12-18T22:49:15.123Z,62.62
2022-12-18T22:54:17.519Z,62.42
2022-12-18T23:04:42.235Z,61.73
2022-12-18T23:09:45.589Z,61.85
2022-12-18T23:14:50.132Z,61.87
2022-12-18T23:19:52.447Z,61.02
2022-12-18T23:24:54.915Z,61.19
2022-12-18T23:29:57.223Z,61.17
2022-12-18T23:35:01.043Z,60.57
2022-12-18T23:40:04.079Z,60.58
2022-12-18T23:45:17.559Z,60.72
2022-12-18T23:50:23.764Z,60.38
